Hauptseite
METAR-TAF:

METAR-TAF

Flughäfen :

Flughafen Foz do Iguaçu

Foz do Iguaçu, Paraná, Brasilien

Breite: 25-31S, Länge: 054-35W, Höhe: 180 m

Beobachtung

Neuester Wetterbericht von vor 42 Minuten, um 02:00 UTC
Wind 4 kt aus Süd/Südost
Temperatur 22°C
Luftfeuchtigkeit 57%
Luftdruck 1011 hPa
Sichtweite 10 km oder mehr
keine Wolken unter 1500 m und keine Kumulonimbus oder Gewitterwolken

METAR: SBFI 080200Z 15004KT CAVOK 22/13 Q1011

Zeit: 23:42 (02:42 UTC)

Prognose

Neuester Wetterbericht von vor 6 Stunden und 12 Minuten, um 20:30 UTC
Gültige Prognose vom 08 um 00 UTC bis 08 um 24 UTC
Wind 6 kt aus Ost/Südost
Sichtweite 10 km oder mehr
keine Wolken unter 1500 m und keine Kumulonimbus oder Gewitterwolken
Übergehend zu
vom 08 um 12 UTC bis 08 um 14 UTC
Wind 5 kt aus Nord/Nordost

TAF: SBFI 072030Z 0800/0824 11006KT CAVOK TN14/0808Z TX32/0818Z BECMG 0812/0814 03005KT RMK PEL

Wetterbeobachtungen und Prognosen von mehr als 4000 Flughäfen (METAR und TAF Bericht).

Die verfügbaren Stationen werden durch gelbe und rote Markierungen auf der Karte dargestellt.

Führen Sie die Maus auf sie, um den Namen der Station zu sehen.

Darauf klicken, um die Beobachtung von Wetterbeobachtungen und Prognosen zu sehen.

Um die Karte zu ändern : klicken Sie auf den grünen Tasten mit einem schwarzen Kreuz Zum Vergrößern, auf den grünen Button mit einem Gedankenstrich zu verkleinern, oder auf die grünen Pfeile für benachbarte Karten.


METAR-TAF: